sensor_id;sensor_type;location;lat;lon;timestamp;P1;durP1;ratioP1;P2;durP2;ratioP2
48853;SDS011;34673;52.808;17.856;2024-01-07T00:01:51;8.43;;;3.92;;
48853;SDS011;34673;52.808;17.856;2024-01-07T00:04:19;10.45;;;4.22;;
48853;SDS011;34673;52.808;17.856;2024-01-07T00:06:46;11.10;;;4.40;;
48853;SDS011;34673;52.808;17.856;2024-01-07T00:09:13;11.65;;;4.75;;
48853;SDS011;34673;52.808;17.856;2024-01-07T00:11:41;11.75;;;4.82;;
48853;SDS011;34673;52.808;17.856;2024-01-07T00:14:08;11.43;;;4.22;;
48853;SDS011;34673;52.808;17.856;2024-01-07T00:16:35;12.45;;;4.78;;
48853;SDS011;34673;52.808;17.856;2024-01-07T00:19:02;12.23;;;4.40;;
48853;SDS011;34673;52.808;17.856;2024-01-07T00:21:30;11.35;;;4.38;;
48853;SDS011;34673;52.808;17.856;2024-01-07T00:23:57;10.35;;;4.97;;
48853;SDS011;34673;52.808;17.856;2024-01-07T00:26:25;11.80;;;4.32;;
48853;SDS011;34673;52.808;17.856;2024-01-07T00:28:52;10.10;;;4.35;;
48853;SDS011;34673;52.808;17.856;2024-01-07T00:31:19;13.02;;;5.38;;
48853;SDS011;34673;52.808;17.856;2024-01-07T00:33:46;11.90;;;5.45;;
48853;SDS011;34673;52.808;17.856;2024-01-07T00:36:14;11.30;;;4.82;;
48853;SDS011;34673;52.808;17.856;2024-01-07T00:38:41;11.95;;;5.18;;
48853;SDS011;34673;52.808;17.856;2024-01-07T00:41:09;12.32;;;5.63;;
48853;SDS011;34673;52.808;17.856;2024-01-07T00:43:36;9.85;;;4.53;;
48853;SDS011;34673;52.808;17.856;2024-01-07T00:46:03;8.27;;;4.30;;
48853;SDS011;34673;52.808;17.856;2024-01-07T00:48:31;10.90;;;4.70;;
48853;SDS011;34673;52.808;17.856;2024-01-07T00:50:59;11.15;;;4.80;;
48853;SDS011;34673;52.808;17.856;2024-01-07T00:53:27;10.52;;;4.28;;
48853;SDS011;34673;52.808;17.856;2024-01-07T00:55:54;12.75;;;5.72;;
48853;SDS011;34673;52.808;17.856;2024-01-07T00:58:21;13.15;;;4.40;;
48853;SDS011;34673;52.808;17.856;2024-01-07T01:00:48;10.75;;;4.75;;
48853;SDS011;34673;52.808;17.856;2024-01-07T01:03:16;10.15;;;4.38;;
48853;SDS011;34673;52.808;17.856;2024-01-07T01:05:43;12.23;;;5.18;;
48853;SDS011;34673;52.808;17.856;2024-01-07T01:08:10;10.60;;;4.72;;
48853;SDS011;34673;52.808;17.856;2024-01-07T01:10:37;10.00;;;4.78;;
48853;SDS011;34673;52.808;17.856;2024-01-07T01:13:05;11.15;;;4.72;;
48853;SDS011;34673;52.808;17.856;2024-01-07T01:15:32;10.63;;;4.47;;
48853;SDS011;34673;52.808;17.856;2024-01-07T01:17:59;11.10;;;4.75;;
48853;SDS011;34673;52.808;17.856;2024-01-07T01:20:26;11.02;;;4.43;;
48853;SDS011;34673;52.808;17.856;2024-01-07T01:22:53;11.15;;;4.38;;
48853;SDS011;34673;52.808;17.856;2024-01-07T01:25:21;7.75;;;3.65;;
48853;SDS011;34673;52.808;17.856;2024-01-07T01:27:48;8.88;;;3.80;;
48853;SDS011;34673;52.808;17.856;2024-01-07T01:30:15;8.40;;;3.85;;
48853;SDS011;34673;52.808;17.856;2024-01-07T01:32:42;12.38;;;3.80;;
48853;SDS011;34673;52.808;17.856;2024-01-07T01:35:09;10.43;;;3.80;;
48853;SDS011;34673;52.808;17.856;2024-01-07T01:37:36;8.40;;;4.10;;
48853;SDS011;34673;52.808;17.856;2024-01-07T01:40:03;7.57;;;3.45;;
48853;SDS011;34673;52.808;17.856;2024-01-07T01:42:31;9.45;;;4.13;;
48853;SDS011;34673;52.808;17.856;2024-01-07T01:44:59;9.02;;;3.55;;
48853;SDS011;34673;52.808;17.856;2024-01-07T01:47:29;9.20;;;4.35;;
48853;SDS011;34673;52.808;17.856;2024-01-07T01:49:58;7.38;;;3.15;;
48853;SDS011;34673;52.808;17.856;2024-01-07T01:52:26;10.05;;;3.63;;
48853;SDS011;34673;52.808;17.856;2024-01-07T01:54:53;8.80;;;3.90;;
48853;SDS011;34673;52.808;17.856;2024-01-07T01:57:21;7.80;;;3.47;;
48853;SDS011;34673;52.808;17.856;2024-01-07T02:02:18;7.72;;;3.40;;
48853;SDS011;34673;52.808;17.856;2024-01-07T02:04:45;8.95;;;3.83;;
48853;SDS011;34673;52.808;17.856;2024-01-07T02:07:12;6.03;;;3.30;;
48853;SDS011;34673;52.808;17.856;2024-01-07T02:09:41;8.48;;;3.10;;
48853;SDS011;34673;52.808;17.856;2024-01-07T02:12:08;8.20;;;3.45;;
48853;SDS011;34673;52.808;17.856;2024-01-07T02:14:38;7.28;;;3.53;;
48853;SDS011;34673;52.808;17.856;2024-01-07T02:17:06;7.57;;;3.70;;
48853;SDS011;34673;52.808;17.856;2024-01-07T02:19:33;6.90;;;3.35;;
48853;SDS011;34673;52.808;17.856;2024-01-07T02:22:01;7.20;;;2.92;;
48853;SDS011;34673;52.808;17.856;2024-01-07T02:24:28;7.93;;;3.58;;
48853;SDS011;34673;52.808;17.856;2024-01-07T02:26:57;7.20;;;2.80;;
48853;SDS011;34673;52.808;17.856;2024-01-07T02:29:24;7.22;;;3.78;;
48853;SDS011;34673;52.808;17.856;2024-01-07T02:31:51;8.10;;;3.30;;
48853;SDS011;34673;52.808;17.856;2024-01-07T02:34:18;6.95;;;3.22;;
48853;SDS011;34673;52.808;17.856;2024-01-07T02:36:46;5.55;;;3.13;;
48853;SDS011;34673;52.808;17.856;2024-01-07T02:39:13;7.55;;;3.70;;
48853;SDS011;34673;52.808;17.856;2024-01-07T02:41:40;7.43;;;3.28;;
48853;SDS011;34673;52.808;17.856;2024-01-07T02:44:07;7.03;;;3.63;;
48853;SDS011;34673;52.808;17.856;2024-01-07T02:46:38;7.65;;;3.22;;
48853;SDS011;34673;52.808;17.856;2024-01-07T02:49:05;8.63;;;3.50;;
48853;SDS011;34673;52.808;17.856;2024-01-07T02:51:33;8.82;;;3.53;;
48853;SDS011;34673;52.808;17.856;2024-01-07T02:54:00;7.53;;;3.58;;
48853;SDS011;34673;52.808;17.856;2024-01-07T02:56:27;7.22;;;3.25;;
48853;SDS011;34673;52.808;17.856;2024-01-07T02:58:54;7.57;;;3.47;;
48853;SDS011;34673;52.808;17.856;2024-01-07T03:01:21;7.40;;;3.60;;
48853;SDS011;34673;52.808;17.856;2024-01-07T03:03:50;6.82;;;3.80;;
48853;SDS011;34673;52.808;17.856;2024-01-07T03:06:17;7.43;;;3.40;;
48853;SDS011;34673;52.808;17.856;2024-01-07T03:08:44;7.75;;;3.78;;
48853;SDS011;34673;52.808;17.856;2024-01-07T03:11:12;10.30;;;3.72;;
48853;SDS011;34673;52.808;17.856;2024-01-07T03:13:39;6.57;;;3.13;;
48853;SDS011;34673;52.808;17.856;2024-01-07T03:16:07;5.80;;;2.80;;
48853;SDS011;34673;52.808;17.856;2024-01-07T03:18:34;6.93;;;3.10;;
48853;SDS011;34673;52.808;17.856;2024-01-07T03:21:01;7.38;;;3.13;;
48853;SDS011;34673;52.808;17.856;2024-01-07T03:23:29;7.32;;;3.33;;
48853;SDS011;34673;52.808;17.856;2024-01-07T03:25:57;6.82;;;3.47;;
48853;SDS011;34673;52.808;17.856;2024-01-07T03:28:25;8.30;;;3.17;;
48853;SDS011;34673;52.808;17.856;2024-01-07T03:30:52;9.57;;;3.85;;
48853;SDS011;34673;52.808;17.856;2024-01-07T03:33:19;7.82;;;3.75;;
48853;SDS011;34673;52.808;17.856;2024-01-07T03:35:46;7.13;;;3.92;;
48853;SDS011;34673;52.808;17.856;2024-01-07T03:38:13;6.15;;;2.90;;
48853;SDS011;34673;52.808;17.856;2024-01-07T03:40:40;7.85;;;3.75;;
48853;SDS011;34673;52.808;17.856;2024-01-07T03:43:08;7.80;;;3.22;;
48853;SDS011;34673;52.808;17.856;2024-01-07T03:45:35;6.47;;;3.20;;
48853;SDS011;34673;52.808;17.856;2024-01-07T03:48:03;6.93;;;3.40;;
48853;SDS011;34673;52.808;17.856;2024-01-07T03:50:31;6.85;;;3.15;;
48853;SDS011;34673;52.808;17.856;2024-01-07T03:52:58;8.00;;;3.45;;
48853;SDS011;34673;52.808;17.856;2024-01-07T03:55:25;9.57;;;4.28;;
48853;SDS011;34673;52.808;17.856;2024-01-07T03:57:52;7.75;;;4.40;;
48853;SDS011;34673;52.808;17.856;2024-01-07T04:00:19;8.77;;;3.70;;
48853;SDS011;34673;52.808;17.856;2024-01-07T04:02:47;7.90;;;3.85;;
48853;SDS011;34673;52.808;17.856;2024-01-07T04:05:14;10.13;;;4.63;;
48853;SDS011;34673;52.808;17.856;2024-01-07T04:07:41;9.20;;;3.80;;
48853;SDS011;34673;52.808;17.856;2024-01-07T04:10:09;7.40;;;3.65;;
48853;SDS011;34673;52.808;17.856;2024-01-07T04:12:36;8.48;;;3.70;;
48853;SDS011;34673;52.808;17.856;2024-01-07T04:15:04;8.60;;;3.83;;
48853;SDS011;34673;52.808;17.856;2024-01-07T04:17:31;8.85;;;4.00;;
48853;SDS011;34673;52.808;17.856;2024-01-07T04:19:58;8.43;;;3.95;;
48853;SDS011;34673;52.808;17.856;2024-01-07T04:22:26;7.40;;;3.70;;
48853;SDS011;34673;52.808;17.856;2024-01-07T04:24:53;8.50;;;4.35;;
48853;SDS011;34673;52.808;17.856;2024-01-07T04:27:20;10.70;;;4.45;;
48853;SDS011;34673;52.808;17.856;2024-01-07T04:29:47;10.00;;;4.68;;
48853;SDS011;34673;52.808;17.856;2024-01-07T04:32:14;12.00;;;5.45;;
48853;SDS011;34673;52.808;17.856;2024-01-07T04:34:41;9.45;;;4.63;;
48853;SDS011;34673;52.808;17.856;2024-01-07T04:37:09;10.82;;;5.18;;
48853;SDS011;34673;52.808;17.856;2024-01-07T04:39:36;12.73;;;5.85;;
48853;SDS011;34673;52.808;17.856;2024-01-07T04:42:03;12.90;;;5.43;;
48853;SDS011;34673;52.808;17.856;2024-01-07T04:44:30;11.70;;;5.30;;
48853;SDS011;34673;52.808;17.856;2024-01-07T04:46:57;10.38;;;4.93;;
48853;SDS011;34673;52.808;17.856;2024-01-07T04:49:24;11.52;;;5.38;;
48853;SDS011;34673;52.808;17.856;2024-01-07T04:51:52;40.63;;;17.15;;
48853;SDS011;34673;52.808;17.856;2024-01-07T04:54:19;13.38;;;5.72;;
48853;SDS011;34673;52.808;17.856;2024-01-07T04:56:46;10.80;;;5.25;;
48853;SDS011;34673;52.808;17.856;2024-01-07T04:59:13;12.45;;;5.50;;
48853;SDS011;34673;52.808;17.856;2024-01-07T05:01:40;10.27;;;4.82;;
48853;SDS011;34673;52.808;17.856;2024-01-07T05:04:08;11.30;;;5.20;;
48853;SDS011;34673;52.808;17.856;2024-01-07T05:06:35;11.88;;;4.88;;
48853;SDS011;34673;52.808;17.856;2024-01-07T05:09:02;13.80;;;5.78;;
48853;SDS011;34673;52.808;17.856;2024-01-07T05:11:29;10.77;;;5.32;;
48853;SDS011;34673;52.808;17.856;2024-01-07T05:13:57;14.98;;;6.30;;
48853;SDS011;34673;52.808;17.856;2024-01-07T05:16:24;10.70;;;4.85;;
48853;SDS011;34673;52.808;17.856;2024-01-07T05:18:51;8.43;;;4.63;;
48853;SDS011;34673;52.808;17.856;2024-01-07T05:21:19;10.55;;;4.80;;
48853;SDS011;34673;52.808;17.856;2024-01-07T05:23:46;10.15;;;4.72;;
48853;SDS011;34673;52.808;17.856;2024-01-07T05:26:13;10.48;;;5.05;;
48853;SDS011;34673;52.808;17.856;2024-01-07T05:28:40;10.07;;;4.93;;
48853;SDS011;34673;52.808;17.856;2024-01-07T05:31:16;11.45;;;4.80;;
48853;SDS011;34673;52.808;17.856;2024-01-07T05:33:45;8.30;;;4.50;;
48853;SDS011;34673;52.808;17.856;2024-01-07T05:36:13;12.20;;;5.40;;
48853;SDS011;34673;52.808;17.856;2024-01-07T05:38:43;10.52;;;5.05;;
48853;SDS011;34673;52.808;17.856;2024-01-07T05:41:10;12.55;;;5.25;;
48853;SDS011;34673;52.808;17.856;2024-01-07T05:43:38;14.30;;;5.43;;
48853;SDS011;34673;52.808;17.856;2024-01-07T05:46:05;11.63;;;5.20;;
48853;SDS011;34673;52.808;17.856;2024-01-07T05:48:41;9.80;;;4.85;;
48853;SDS011;34673;52.808;17.856;2024-01-07T05:51:12;12.25;;;5.72;;
48853;SDS011;34673;52.808;17.856;2024-01-07T05:53:40;10.77;;;5.57;;
48853;SDS011;34673;52.808;17.856;2024-01-07T05:56:08;11.32;;;5.22;;
48853;SDS011;34673;52.808;17.856;2024-01-07T05:58:35;13.65;;;5.90;;
48853;SDS011;34673;52.808;17.856;2024-01-07T06:01:02;10.95;;;5.90;;
48853;SDS011;34673;52.808;17.856;2024-01-07T06:03:30;10.55;;;5.65;;
48853;SDS011;34673;52.808;17.856;2024-01-07T06:05:57;9.45;;;4.90;;
48853;SDS011;34673;52.808;17.856;2024-01-07T06:08:28;13.45;;;6.28;;
48853;SDS011;34673;52.808;17.856;2024-01-07T06:10:55;12.27;;;6.55;;
48853;SDS011;34673;52.808;17.856;2024-01-07T06:13:22;12.98;;;5.70;;
48853;SDS011;34673;52.808;17.856;2024-01-07T06:15:50;12.13;;;5.43;;
48853;SDS011;34673;52.808;17.856;2024-01-07T06:18:17;13.15;;;6.00;;
48853;SDS011;34673;52.808;17.856;2024-01-07T06:20:45;13.00;;;6.10;;
48853;SDS011;34673;52.808;17.856;2024-01-07T06:23:12;12.60;;;5.35;;
48853;SDS011;34673;52.808;17.856;2024-01-07T06:25:39;10.70;;;5.30;;
48853;SDS011;34673;52.808;17.856;2024-01-07T06:28:06;10.07;;;5.40;;
48853;SDS011;34673;52.808;17.856;2024-01-07T06:30:33;11.40;;;5.72;;
48853;SDS011;34673;52.808;17.856;2024-01-07T06:33:01;13.63;;;5.80;;
48853;SDS011;34673;52.808;17.856;2024-01-07T06:35:28;11.98;;;6.07;;
48853;SDS011;34673;52.808;17.856;2024-01-07T06:37:55;13.38;;;5.85;;
48853;SDS011;34673;52.808;17.856;2024-01-07T06:40:22;13.60;;;5.88;;
48853;SDS011;34673;52.808;17.856;2024-01-07T06:42:49;12.30;;;6.07;;
48853;SDS011;34673;52.808;17.856;2024-01-07T06:45:17;12.27;;;5.40;;
48853;SDS011;34673;52.808;17.856;2024-01-07T06:47:44;11.45;;;5.75;;
48853;SDS011;34673;52.808;17.856;2024-01-07T06:50:13;12.48;;;5.72;;
48853;SDS011;34673;52.808;17.856;2024-01-07T06:52:40;12.32;;;5.35;;
48853;SDS011;34673;52.808;17.856;2024-01-07T06:55:07;11.80;;;5.32;;
48853;SDS011;34673;52.808;17.856;2024-01-07T06:57:35;9.70;;;5.07;;
48853;SDS011;34673;52.808;17.856;2024-01-07T07:00:02;12.10;;;5.75;;
48853;SDS011;34673;52.808;17.856;2024-01-07T07:02:30;10.68;;;5.15;;
48853;SDS011;34673;52.808;17.856;2024-01-07T07:04:57;11.05;;;5.10;;
48853;SDS011;34673;52.808;17.856;2024-01-07T07:07:24;10.65;;;5.25;;
48853;SDS011;34673;52.808;17.856;2024-01-07T07:09:51;11.27;;;5.40;;
48853;SDS011;34673;52.808;17.856;2024-01-07T07:12:19;10.77;;;5.32;;
48853;SDS011;34673;52.808;17.856;2024-01-07T07:14:46;11.20;;;5.28;;
48853;SDS011;34673;52.808;17.856;2024-01-07T07:17:13;8.65;;;4.68;;
48853;SDS011;34673;52.808;17.856;2024-01-07T07:19:42;10.88;;;5.30;;
48853;SDS011;34673;52.808;17.856;2024-01-07T07:24:40;11.15;;;5.32;;
48853;SDS011;34673;52.808;17.856;2024-01-07T07:27:08;9.70;;;4.95;;
48853;SDS011;34673;52.808;17.856;2024-01-07T07:29:35;9.77;;;5.03;;
48853;SDS011;34673;52.808;17.856;2024-01-07T07:32:03;10.57;;;4.90;;
48853;SDS011;34673;52.808;17.856;2024-01-07T07:34:30;11.52;;;5.38;;
48853;SDS011;34673;52.808;17.856;2024-01-07T07:36:58;13.82;;;5.47;;
48853;SDS011;34673;52.808;17.856;2024-01-07T07:39:25;11.90;;;4.85;;
48853;SDS011;34673;52.808;17.856;2024-01-07T07:41:52;10.38;;;5.22;;
48853;SDS011;34673;52.808;17.856;2024-01-07T07:44:19;10.98;;;4.72;;
48853;SDS011;34673;52.808;17.856;2024-01-07T07:46:46;9.73;;;4.90;;
48853;SDS011;34673;52.808;17.856;2024-01-07T07:49:14;11.38;;;5.30;;
48853;SDS011;34673;52.808;17.856;2024-01-07T07:51:43;11.57;;;5.68;;
48853;SDS011;34673;52.808;17.856;2024-01-07T07:54:10;11.85;;;5.65;;
48853;SDS011;34673;52.808;17.856;2024-01-07T07:56:37;10.68;;;4.95;;
48853;SDS011;34673;52.808;17.856;2024-01-07T07:59:05;11.18;;;5.25;;
48853;SDS011;34673;52.808;17.856;2024-01-07T08:01:32;11.75;;;5.60;;
48853;SDS011;34673;52.808;17.856;2024-01-07T08:03:59;11.27;;;5.38;;
48853;SDS011;34673;52.808;17.856;2024-01-07T08:06:26;12.75;;;6.35;;
48853;SDS011;34673;52.808;17.856;2024-01-07T08:08:54;11.48;;;5.70;;
48853;SDS011;34673;52.808;17.856;2024-01-07T08:11:21;13.25;;;5.57;;
48853;SDS011;34673;52.808;17.856;2024-01-07T08:13:48;12.07;;;5.75;;
48853;SDS011;34673;52.808;17.856;2024-01-07T08:16:16;11.95;;;5.97;;
48853;SDS011;34673;52.808;17.856;2024-01-07T08:18:43;15.65;;;6.68;;
48853;SDS011;34673;52.808;17.856;2024-01-07T08:21:11;16.77;;;7.10;;
48853;SDS011;34673;52.808;17.856;2024-01-07T08:23:38;15.40;;;6.85;;
48853;SDS011;34673;52.808;17.856;2024-01-07T08:26:05;11.40;;;5.68;;
48853;SDS011;34673;52.808;17.856;2024-01-07T08:28:32;12.40;;;5.85;;
48853;SDS011;34673;52.808;17.856;2024-01-07T08:30:59;11.50;;;5.20;;
48853;SDS011;34673;52.808;17.856;2024-01-07T08:33:27;12.50;;;5.75;;
48853;SDS011;34673;52.808;17.856;2024-01-07T08:35:56;10.00;;;5.22;;
48853;SDS011;34673;52.808;17.856;2024-01-07T08:38:23;13.60;;;5.30;;
48853;SDS011;34673;52.808;17.856;2024-01-07T08:40:50;11.52;;;5.10;;
48853;SDS011;34673;52.808;17.856;2024-01-07T08:43:17;11.57;;;5.15;;
48853;SDS011;34673;52.808;17.856;2024-01-07T08:45:44;11.18;;;5.45;;
48853;SDS011;34673;52.808;17.856;2024-01-07T08:48:12;12.25;;;5.15;;
48853;SDS011;34673;52.808;17.856;2024-01-07T08:50:39;10.95;;;5.72;;
48853;SDS011;34673;52.808;17.856;2024-01-07T08:53:06;11.18;;;5.25;;
48853;SDS011;34673;52.808;17.856;2024-01-07T08:55:33;13.05;;;5.40;;
48853;SDS011;34673;52.808;17.856;2024-01-07T08:58:01;12.85;;;5.53;;
48853;SDS011;34673;52.808;17.856;2024-01-07T09:00:28;15.10;;;6.20;;
48853;SDS011;34673;52.808;17.856;2024-01-07T09:02:58;11.52;;;6.07;;
48853;SDS011;34673;52.808;17.856;2024-01-07T09:05:26;12.63;;;6.18;;
48853;SDS011;34673;52.808;17.856;2024-01-07T09:07:53;13.18;;;5.55;;
48853;SDS011;34673;52.808;17.856;2024-01-07T09:10:21;12.65;;;6.28;;
48853;SDS011;34673;52.808;17.856;2024-01-07T09:12:49;13.30;;;6.30;;
48853;SDS011;34673;52.808;17.856;2024-01-07T09:15:18;12.35;;;5.70;;
48853;SDS011;34673;52.808;17.856;2024-01-07T09:17:45;12.65;;;5.55;;
48853;SDS011;34673;52.808;17.856;2024-01-07T09:20:13;13.68;;;6.07;;
48853;SDS011;34673;52.808;17.856;2024-01-07T09:22:40;15.70;;;6.82;;
48853;SDS011;34673;52.808;17.856;2024-01-07T09:25:08;10.80;;;5.50;;
48853;SDS011;34673;52.808;17.856;2024-01-07T09:27:36;11.70;;;5.47;;
48853;SDS011;34673;52.808;17.856;2024-01-07T09:30:03;13.00;;;5.93;;
48853;SDS011;34673;52.808;17.856;2024-01-07T09:32:32;11.68;;;5.80;;
48853;SDS011;34673;52.808;17.856;2024-01-07T09:35:04;15.20;;;7.15;;
48853;SDS011;34673;52.808;17.856;2024-01-07T09:37:33;13.05;;;6.22;;
48853;SDS011;34673;52.808;17.856;2024-01-07T09:40:00;13.38;;;6.15;;
48853;SDS011;34673;52.808;17.856;2024-01-07T09:42:28;13.82;;;6.97;;
48853;SDS011;34673;52.808;17.856;2024-01-07T09:44:55;13.57;;;6.82;;
48853;SDS011;34673;52.808;17.856;2024-01-07T09:47:23;14.13;;;6.28;;
48853;SDS011;34673;52.808;17.856;2024-01-07T09:49:50;13.27;;;6.68;;
48853;SDS011;34673;52.808;17.856;2024-01-07T09:52:19;13.23;;;6.78;;
48853;SDS011;34673;52.808;17.856;2024-01-07T09:54:48;14.18;;;7.40;;
48853;SDS011;34673;52.808;17.856;2024-01-07T09:57:19;16.15;;;7.00;;
48853;SDS011;34673;52.808;17.856;2024-01-07T09:59:47;12.57;;;6.57;;
48853;SDS011;34673;52.808;17.856;2024-01-07T10:02:15;15.30;;;6.35;;
48853;SDS011;34673;52.808;17.856;2024-01-07T10:04:43;13.35;;;7.13;;
48853;SDS011;34673;52.808;17.856;2024-01-07T10:07:11;13.70;;;6.55;;
48853;SDS011;34673;52.808;17.856;2024-01-07T10:09:40;15.07;;;7.28;;
48853;SDS011;34673;52.808;17.856;2024-01-07T10:12:09;16.13;;;7.22;;
48853;SDS011;34673;52.808;17.856;2024-01-07T10:14:36;15.75;;;6.38;;
48853;SDS011;34673;52.808;17.856;2024-01-07T10:17:06;16.02;;;6.55;;
48853;SDS011;34673;52.808;17.856;2024-01-07T10:19:45;18.35;;;8.15;;
48853;SDS011;34673;52.808;17.856;2024-01-07T10:22:15;20.13;;;9.18;;
48853;SDS011;34673;52.808;17.856;2024-01-07T10:24:43;15.45;;;7.38;;
48853;SDS011;34673;52.808;17.856;2024-01-07T10:27:10;14.70;;;6.82;;
48853;SDS011;34673;52.808;17.856;2024-01-07T10:29:37;14.68;;;7.15;;
48853;SDS011;34673;52.808;17.856;2024-01-07T10:32:04;13.23;;;6.63;;
48853;SDS011;34673;52.808;17.856;2024-01-07T10:34:36;14.35;;;7.15;;
48853;SDS011;34673;52.808;17.856;2024-01-07T10:37:04;15.63;;;7.38;;
48853;SDS011;34673;52.808;17.856;2024-01-07T10:39:32;14.27;;;6.97;;
48853;SDS011;34673;52.808;17.856;2024-01-07T10:42:00;14.10;;;6.65;;
48853;SDS011;34673;52.808;17.856;2024-01-07T10:44:29;17.75;;;7.32;;
48853;SDS011;34673;52.808;17.856;2024-01-07T10:46:58;17.70;;;7.25;;
48853;SDS011;34673;52.808;17.856;2024-01-07T10:49:27;16.70;;;6.93;;
48853;SDS011;34673;52.808;17.856;2024-01-07T10:52:03;16.40;;;7.30;;
48853;SDS011;34673;52.808;17.856;2024-01-07T10:54:35;18.42;;;7.35;;
48853;SDS011;34673;52.808;17.856;2024-01-07T10:57:13;19.30;;;6.93;;
48853;SDS011;34673;52.808;17.856;2024-01-07T10:59:54;13.30;;;6.57;;
48853;SDS011;34673;52.808;17.856;2024-01-07T11:02:23;15.07;;;7.60;;
48853;SDS011;34673;52.808;17.856;2024-01-07T11:04:54;15.30;;;7.90;;
48853;SDS011;34673;52.808;17.856;2024-01-07T11:07:49;16.67;;;8.05;;
48853;SDS011;34673;52.808;17.856;2024-01-07T11:13:36;20.23;;;8.93;;
48853;SDS011;34673;52.808;17.856;2024-01-07T11:16:08;21.55;;;8.88;;
48853;SDS011;34673;52.808;17.856;2024-01-07T11:18:40;16.85;;;8.30;;
48853;SDS011;34673;52.808;17.856;2024-01-07T11:21:20;16.77;;;7.30;;
48853;SDS011;34673;52.808;17.856;2024-01-07T11:23:48;15.07;;;6.68;;
48853;SDS011;34673;52.808;17.856;2024-01-07T11:26:15;11.68;;;5.45;;
48853;SDS011;34673;52.808;17.856;2024-01-07T11:28:55;12.15;;;6.03;;
48853;SDS011;34673;52.808;17.856;2024-01-07T11:34:09;14.82;;;6.78;;
48853;SDS011;34673;52.808;17.856;2024-01-07T11:36:37;12.48;;;6.03;;
48853;SDS011;34673;52.808;17.856;2024-01-07T11:39:05;12.93;;;5.90;;
48853;SDS011;34673;52.808;17.856;2024-01-07T11:41:36;10.98;;;5.38;;
48853;SDS011;34673;52.808;17.856;2024-01-07T11:44:06;13.27;;;5.95;;
48853;SDS011;34673;52.808;17.856;2024-01-07T11:46:38;14.35;;;7.28;;
48853;SDS011;34673;52.808;17.856;2024-01-07T11:49:05;15.05;;;7.00;;
48853;SDS011;34673;52.808;17.856;2024-01-07T11:51:32;14.00;;;7.13;;
48853;SDS011;34673;52.808;17.856;2024-01-07T11:54:01;15.10;;;7.20;;
48853;SDS011;34673;52.808;17.856;2024-01-07T11:56:29;15.63;;;7.35;;
48853;SDS011;34673;52.808;17.856;2024-01-07T11:58:56;15.30;;;6.57;;
48853;SDS011;34673;52.808;17.856;2024-01-07T12:01:24;16.90;;;7.35;;
48853;SDS011;34673;52.808;17.856;2024-01-07T12:03:55;15.02;;;6.55;;
48853;SDS011;34673;52.808;17.856;2024-01-07T12:06:22;14.23;;;6.97;;
48853;SDS011;34673;52.808;17.856;2024-01-07T12:08:50;16.83;;;7.03;;
48853;SDS011;34673;52.808;17.856;2024-01-07T12:11:18;13.63;;;5.90;;
48853;SDS011;34673;52.808;17.856;2024-01-07T12:13:45;12.88;;;5.82;;
48853;SDS011;34673;52.808;17.856;2024-01-07T12:16:13;12.27;;;6.00;;
48853;SDS011;34673;52.808;17.856;2024-01-07T12:18:41;15.82;;;6.07;;
48853;SDS011;34673;52.808;17.856;2024-01-07T12:21:09;14.02;;;6.28;;
48853;SDS011;34673;52.808;17.856;2024-01-07T12:23:36;13.40;;;6.55;;
48853;SDS011;34673;52.808;17.856;2024-01-07T12:26:09;14.25;;;6.85;;
48853;SDS011;34673;52.808;17.856;2024-01-07T12:28:37;15.40;;;7.05;;
48853;SDS011;34673;52.808;17.856;2024-01-07T12:31:06;14.73;;;6.45;;
48853;SDS011;34673;52.808;17.856;2024-01-07T12:33:36;17.20;;;8.10;;
48853;SDS011;34673;52.808;17.856;2024-01-07T12:36:06;13.95;;;6.80;;
48853;SDS011;34673;52.808;17.856;2024-01-07T12:38:37;18.50;;;8.57;;
48853;SDS011;34673;52.808;17.856;2024-01-07T12:41:08;16.20;;;7.57;;
48853;SDS011;34673;52.808;17.856;2024-01-07T12:46:04;16.80;;;7.38;;
48853;SDS011;34673;52.808;17.856;2024-01-07T12:48:32;14.60;;;7.07;;
48853;SDS011;34673;52.808;17.856;2024-01-07T12:51:00;17.65;;;7.35;;
48853;SDS011;34673;52.808;17.856;2024-01-07T12:53:28;16.98;;;8.00;;
48853;SDS011;34673;52.808;17.856;2024-01-07T12:55:55;17.38;;;7.70;;
48853;SDS011;34673;52.808;17.856;2024-01-07T12:58:23;18.05;;;7.90;;
48853;SDS011;34673;52.808;17.856;2024-01-07T13:00:50;19.70;;;8.10;;
48853;SDS011;34673;52.808;17.856;2024-01-07T13:03:17;18.85;;;7.65;;
48853;SDS011;34673;52.808;17.856;2024-01-07T13:05:46;17.25;;;6.82;;
48853;SDS011;34673;52.808;17.856;2024-01-07T13:08:17;16.75;;;6.95;;
48853;SDS011;34673;52.808;17.856;2024-01-07T13:10:45;16.30;;;7.60;;
48853;SDS011;34673;52.808;17.856;2024-01-07T13:13:12;17.33;;;8.02;;
48853;SDS011;34673;52.808;17.856;2024-01-07T13:15:42;16.48;;;7.53;;
48853;SDS011;34673;52.808;17.856;2024-01-07T13:18:10;15.50;;;7.15;;
48853;SDS011;34673;52.808;17.856;2024-01-07T13:20:40;15.40;;;7.95;;
48853;SDS011;34673;52.808;17.856;2024-01-07T13:23:07;15.15;;;7.65;;
48853;SDS011;34673;52.808;17.856;2024-01-07T13:25:35;16.80;;;7.85;;
48853;SDS011;34673;52.808;17.856;2024-01-07T13:28:02;20.08;;;8.25;;
48853;SDS011;34673;52.808;17.856;2024-01-07T13:30:30;16.40;;;7.43;;
48853;SDS011;34673;52.808;17.856;2024-01-07T13:32:57;16.23;;;7.60;;
48853;SDS011;34673;52.808;17.856;2024-01-07T13:35:27;15.10;;;7.00;;
48853;SDS011;34673;52.808;17.856;2024-01-07T13:37:54;23.63;;;9.13;;
48853;SDS011;34673;52.808;17.856;2024-01-07T13:40:21;14.98;;;7.55;;
48853;SDS011;34673;52.808;17.856;2024-01-07T13:42:48;15.43;;;7.38;;
48853;SDS011;34673;52.808;17.856;2024-01-07T13:45:18;16.80;;;7.65;;
48853;SDS011;34673;52.808;17.856;2024-01-07T13:47:50;18.05;;;7.97;;
48853;SDS011;34673;52.808;17.856;2024-01-07T13:50:17;15.85;;;7.20;;
48853;SDS011;34673;52.808;17.856;2024-01-07T13:52:45;18.65;;;8.48;;
48853;SDS011;34673;52.808;17.856;2024-01-07T13:55:12;17.05;;;8.25;;
48853;SDS011;34673;52.808;17.856;2024-01-07T13:57:40;17.05;;;8.02;;
48853;SDS011;34673;52.808;17.856;2024-01-07T14:00:09;14.93;;;6.53;;
48853;SDS011;34673;52.808;17.856;2024-01-07T14:02:37;16.65;;;7.75;;
48853;SDS011;34673;52.808;17.856;2024-01-07T14:05:05;38.88;;;14.48;;
48853;SDS011;34673;52.808;17.856;2024-01-07T14:07:33;24.42;;;11.43;;
48853;SDS011;34673;52.808;17.856;2024-01-07T14:10:01;17.08;;;8.20;;
48853;SDS011;34673;52.808;17.856;2024-01-07T14:12:32;20.33;;;8.43;;
48853;SDS011;34673;52.808;17.856;2024-01-07T14:14:59;17.92;;;7.68;;
48853;SDS011;34673;52.808;17.856;2024-01-07T14:17:26;17.27;;;8.00;;
48853;SDS011;34673;52.808;17.856;2024-01-07T14:19:54;17.48;;;8.00;;
48853;SDS011;34673;52.808;17.856;2024-01-07T14:22:21;15.60;;;7.20;;
48853;SDS011;34673;52.808;17.856;2024-01-07T14:24:49;17.30;;;7.30;;
48853;SDS011;34673;52.808;17.856;2024-01-07T14:27:16;15.90;;;7.55;;
48853;SDS011;34673;52.808;17.856;2024-01-07T14:29:44;16.77;;;7.55;;
48853;SDS011;34673;52.808;17.856;2024-01-07T14:32:12;15.27;;;7.00;;
48853;SDS011;34673;52.808;17.856;2024-01-07T14:34:40;16.38;;;7.60;;
48853;SDS011;34673;52.808;17.856;2024-01-07T14:37:08;18.08;;;7.68;;
48853;SDS011;34673;52.808;17.856;2024-01-07T14:39:37;18.17;;;7.68;;
48853;SDS011;34673;52.808;17.856;2024-01-07T14:42:05;17.25;;;8.40;;